sensor_id;sensor_type;location;lat;lon;timestamp;P1;durP1;ratioP1;P2;durP2;ratioP2
64966;SDS011;51710;38.732;-121.358;2022-08-01T00:01:23;2.03;;;1.55;;
64966;SDS011;51710;38.732;-121.358;2022-08-01T00:03:49;2.17;;;1.50;;
64966;SDS011;51710;38.732;-121.358;2022-08-01T00:06:15;2.20;;;1.70;;
64966;SDS011;51710;38.732;-121.358;2022-08-01T00:08:42;2.22;;;1.63;;
64966;SDS011;51710;38.732;-121.358;2022-08-01T00:11:08;2.40;;;1.70;;
64966;SDS011;51710;38.732;-121.358;2022-08-01T00:13:35;1.83;;;1.30;;
64966;SDS011;51710;38.732;-121.358;2022-08-01T00:16:01;2.50;;;1.50;;
64966;SDS011;51710;38.732;-121.358;2022-08-01T00:18:28;2.45;;;1.60;;
64966;SDS011;51710;38.732;-121.358;2022-08-01T00:20:54;2.45;;;1.30;;
64966;SDS011;51710;38.732;-121.358;2022-08-01T00:23:20;1.90;;;1.40;;
64966;SDS011;51710;38.732;-121.358;2022-08-01T00:25:46;2.72;;;1.20;;
64966;SDS011;51710;38.732;-121.358;2022-08-01T00:28:13;2.90;;;1.38;;
64966;SDS011;51710;38.732;-121.358;2022-08-01T00:30:39;2.42;;;1.45;;
64966;SDS011;51710;38.732;-121.358;2022-08-01T00:33:05;1.77;;;1.58;;
64966;SDS011;51710;38.732;-121.358;2022-08-01T00:35:32;3.70;;;1.45;;
64966;SDS011;51710;38.732;-121.358;2022-08-01T00:37:58;2.03;;;1.38;;
64966;SDS011;51710;38.732;-121.358;2022-08-01T00:40:24;1.88;;;1.50;;
64966;SDS011;51710;38.732;-121.358;2022-08-01T00:42:51;3.67;;;1.60;;
64966;SDS011;51710;38.732;-121.358;2022-08-01T00:45:17;4.50;;;1.45;;
64966;SDS011;51710;38.732;-121.358;2022-08-01T00:47:44;2.17;;;1.70;;
64966;SDS011;51710;38.732;-121.358;2022-08-01T00:50:10;2.92;;;1.80;;
64966;SDS011;51710;38.732;-121.358;2022-08-01T00:52:37;2.13;;;1.65;;
64966;SDS011;51710;38.732;-121.358;2022-08-01T00:55:05;1.95;;;1.50;;
64966;SDS011;51710;38.732;-121.358;2022-08-01T00:57:32;2.17;;;1.65;;
64966;SDS011;51710;38.732;-121.358;2022-08-01T00:59:59;2.28;;;1.77;;
64966;SDS011;51710;38.732;-121.358;2022-08-01T01:02:26;2.40;;;1.70;;
64966;SDS011;51710;38.732;-121.358;2022-08-01T01:04:53;2.65;;;1.63;;
64966;SDS011;51710;38.732;-121.358;2022-08-01T01:07:21;3.20;;;1.88;;
64966;SDS011;51710;38.732;-121.358;2022-08-01T01:09:59;2.33;;;1.70;;
64966;SDS011;51710;38.732;-121.358;2022-08-01T01:15:33;3.00;;;1.88;;
64966;SDS011;51710;38.732;-121.358;2022-08-01T01:18:08;3.47;;;2.00;;
64966;SDS011;51710;38.732;-121.358;2022-08-01T01:20:44;3.67;;;2.05;;
64966;SDS011;51710;38.732;-121.358;2022-08-01T01:29:32;2.33;;;1.92;;
64966;SDS011;51710;38.732;-121.358;2022-08-01T01:32:17;2.03;;;1.70;;
64966;SDS011;51710;38.732;-121.358;2022-08-01T01:34:49;2.90;;;1.88;;
64966;SDS011;51710;38.732;-121.358;2022-08-01T01:37:20;4.60;;;1.90;;
64966;SDS011;51710;38.732;-121.358;2022-08-01T01:39:50;2.75;;;1.80;;
64966;SDS011;51710;38.732;-121.358;2022-08-01T01:42:18;3.72;;;2.10;;
64966;SDS011;51710;38.732;-121.358;2022-08-01T01:44:46;2.58;;;1.85;;
64966;SDS011;51710;38.732;-121.358;2022-08-01T01:47:16;2.53;;;1.60;;
64966;SDS011;51710;38.732;-121.358;2022-08-01T01:49:43;2.20;;;1.60;;
64966;SDS011;51710;38.732;-121.358;2022-08-01T01:52:13;2.20;;;1.50;;
64966;SDS011;51710;38.732;-121.358;2022-08-01T01:54:44;1.55;;;1.40;;
64966;SDS011;51710;38.732;-121.358;2022-08-01T01:57:13;2.60;;;1.55;;
64966;SDS011;51710;38.732;-121.358;2022-08-01T01:59:41;1.95;;;1.58;;
64966;SDS011;51710;38.732;-121.358;2022-08-01T02:02:10;1.70;;;1.60;;
64966;SDS011;51710;38.732;-121.358;2022-08-01T02:04:40;3.15;;;1.73;;
64966;SDS011;51710;38.732;-121.358;2022-08-01T02:07:11;2.53;;;1.63;;
64966;SDS011;51710;38.732;-121.358;2022-08-01T02:09:43;2.53;;;1.73;;
64966;SDS011;51710;38.732;-121.358;2022-08-01T02:12:12;3.85;;;1.70;;
64966;SDS011;51710;38.732;-121.358;2022-08-01T02:14:42;2.70;;;1.80;;
64966;SDS011;51710;38.732;-121.358;2022-08-01T02:17:11;2.95;;;1.73;;
64966;SDS011;51710;38.732;-121.358;2022-08-01T02:19:41;2.30;;;1.80;;
64966;SDS011;51710;38.732;-121.358;2022-08-01T02:22:09;2.80;;;1.70;;
64966;SDS011;51710;38.732;-121.358;2022-08-01T02:25:07;2.47;;;1.70;;
64966;SDS011;51710;38.732;-121.358;2022-08-01T02:28:09;2.15;;;1.50;;
64966;SDS011;51710;38.732;-121.358;2022-08-01T02:30:39;1.77;;;1.60;;
64966;SDS011;51710;38.732;-121.358;2022-08-01T02:33:14;2.58;;;1.52;;
64966;SDS011;51710;38.732;-121.358;2022-08-01T02:35:47;2.30;;;1.48;;
64966;SDS011;51710;38.732;-121.358;2022-08-01T02:38:16;1.80;;;1.30;;
64966;SDS011;51710;38.732;-121.358;2022-08-01T02:40:45;1.50;;;1.10;;
64966;SDS011;51710;38.732;-121.358;2022-08-01T02:43:15;1.67;;;1.40;;
64966;SDS011;51710;38.732;-121.358;2022-08-01T02:45:47;1.30;;;1.20;;
64966;SDS011;51710;38.732;-121.358;2022-08-01T02:48:19;1.90;;;1.40;;
64966;SDS011;51710;38.732;-121.358;2022-08-01T02:50:48;1.58;;;1.13;;
64966;SDS011;51710;38.732;-121.358;2022-08-01T02:53:18;2.55;;;1.08;;
64966;SDS011;51710;38.732;-121.358;2022-08-01T02:55:47;2.50;;;1.38;;
64966;SDS011;51710;38.732;-121.358;2022-08-01T02:58:15;2.67;;;1.25;;
64966;SDS011;51710;38.732;-121.358;2022-08-01T03:00:44;4.45;;;1.20;;
64966;SDS011;51710;38.732;-121.358;2022-08-01T03:03:13;2.25;;;1.13;;
64966;SDS011;51710;38.732;-121.358;2022-08-01T03:05:40;3.30;;;1.30;;
64966;SDS011;51710;38.732;-121.358;2022-08-01T03:08:09;1.83;;;1.17;;
64966;SDS011;51710;38.732;-121.358;2022-08-01T03:10:37;4.20;;;0.98;;
64966;SDS011;51710;38.732;-121.358;2022-08-01T03:13:06;1.90;;;1.00;;
64966;SDS011;51710;38.732;-121.358;2022-08-01T03:15:35;3.05;;;1.10;;
64966;SDS011;51710;38.732;-121.358;2022-08-01T03:18:06;1.55;;;1.25;;
64966;SDS011;51710;38.732;-121.358;2022-08-01T03:20:34;1.00;;;0.90;;
64966;SDS011;51710;38.732;-121.358;2022-08-01T03:23:02;1.85;;;1.10;;
64966;SDS011;51710;38.732;-121.358;2022-08-01T03:25:31;1.52;;;1.00;;
64966;SDS011;51710;38.732;-121.358;2022-08-01T03:28:02;1.65;;;1.10;;
64966;SDS011;51710;38.732;-121.358;2022-08-01T03:30:30;1.17;;;0.90;;
64966;SDS011;51710;38.732;-121.358;2022-08-01T03:32:58;2.05;;;1.20;;
64966;SDS011;51710;38.732;-121.358;2022-08-01T03:35:35;1.23;;;1.10;;
64966;SDS011;51710;38.732;-121.358;2022-08-01T03:38:05;1.10;;;0.95;;
64966;SDS011;51710;38.732;-121.358;2022-08-01T03:40:41;1.33;;;1.10;;
64966;SDS011;51710;38.732;-121.358;2022-08-01T03:43:29;1.88;;;1.10;;
64966;SDS011;51710;38.732;-121.358;2022-08-01T03:46:06;1.73;;;1.00;;
64966;SDS011;51710;38.732;-121.358;2022-08-01T03:48:37;3.08;;;1.10;;
64966;SDS011;51710;38.732;-121.358;2022-08-01T03:51:08;1.55;;;0.93;;
64966;SDS011;51710;38.732;-121.358;2022-08-01T03:53:35;1.55;;;1.05;;
64966;SDS011;51710;38.732;-121.358;2022-08-01T03:56:03;1.30;;;1.00;;
64966;SDS011;51710;38.732;-121.358;2022-08-01T03:58:33;2.17;;;1.17;;
64966;SDS011;51710;38.732;-121.358;2022-08-01T04:01:04;1.20;;;0.90;;
64966;SDS011;51710;38.732;-121.358;2022-08-01T04:03:34;1.58;;;1.10;;
64966;SDS011;51710;38.732;-121.358;2022-08-01T04:06:03;2.83;;;1.10;;
64966;SDS011;51710;38.732;-121.358;2022-08-01T04:08:34;1.17;;;0.82;;
64966;SDS011;51710;38.732;-121.358;2022-08-01T04:11:01;2.25;;;0.90;;
64966;SDS011;51710;38.732;-121.358;2022-08-01T04:13:28;1.13;;;1.02;;
64966;SDS011;51710;38.732;-121.358;2022-08-01T04:15:54;1.23;;;0.90;;
64966;SDS011;51710;38.732;-121.358;2022-08-01T04:18:21;1.00;;;0.95;;
64966;SDS011;51710;38.732;-121.358;2022-08-01T04:20:47;1.42;;;0.93;;
64966;SDS011;51710;38.732;-121.358;2022-08-01T04:23:15;1.00;;;0.90;;
64966;SDS011;51710;38.732;-121.358;2022-08-01T04:25:44;1.08;;;0.98;;
64966;SDS011;51710;38.732;-121.358;2022-08-01T04:28:13;1.55;;;0.80;;
64966;SDS011;51710;38.732;-121.358;2022-08-01T04:30:42;1.67;;;1.00;;
64966;SDS011;51710;38.732;-121.358;2022-08-01T04:33:13;2.22;;;0.90;;
64966;SDS011;51710;38.732;-121.358;2022-08-01T04:35:43;1.25;;;0.90;;
64966;SDS011;51710;38.732;-121.358;2022-08-01T04:38:12;1.23;;;1.02;;
64966;SDS011;51710;38.732;-121.358;2022-08-01T04:40:44;1.42;;;0.80;;
64966;SDS011;51710;38.732;-121.358;2022-08-01T04:43:11;1.58;;;0.93;;
64966;SDS011;51710;38.732;-121.358;2022-08-01T04:45:38;1.63;;;0.90;;
64966;SDS011;51710;38.732;-121.358;2022-08-01T04:48:06;0.80;;;0.75;;
64966;SDS011;51710;38.732;-121.358;2022-08-01T04:50:34;1.45;;;0.90;;
64966;SDS011;51710;38.732;-121.358;2022-08-01T04:53:02;2.22;;;1.30;;
64966;SDS011;51710;38.732;-121.358;2022-08-01T04:55:29;1.73;;;0.90;;
64966;SDS011;51710;38.732;-121.358;2022-08-01T04:57:56;2.60;;;0.85;;
64966;SDS011;51710;38.732;-121.358;2022-08-01T05:00:23;1.98;;;1.10;;
64966;SDS011;51710;38.732;-121.358;2022-08-01T05:02:49;1.08;;;0.80;;
64966;SDS011;51710;38.732;-121.358;2022-08-01T05:05:15;0.85;;;0.82;;
64966;SDS011;51710;38.732;-121.358;2022-08-01T05:07:42;2.47;;;1.10;;
64966;SDS011;51710;38.732;-121.358;2022-08-01T05:10:08;0.77;;;0.70;;
64966;SDS011;51710;38.732;-121.358;2022-08-01T05:12:35;1.40;;;0.70;;
64966;SDS011;51710;38.732;-121.358;2022-08-01T05:15:01;1.25;;;0.85;;
64966;SDS011;51710;38.732;-121.358;2022-08-01T05:17:28;1.00;;;0.60;;
64966;SDS011;51710;38.732;-121.358;2022-08-01T05:19:54;1.13;;;0.75;;
64966;SDS011;51710;38.732;-121.358;2022-08-01T05:22:20;1.10;;;0.88;;
64966;SDS011;51710;38.732;-121.358;2022-08-01T05:24:47;0.60;;;0.60;;
64966;SDS011;51710;38.732;-121.358;2022-08-01T05:27:14;0.70;;;0.70;;
64966;SDS011;51710;38.732;-121.358;2022-08-01T05:29:40;1.92;;;0.88;;
64966;SDS011;51710;38.732;-121.358;2022-08-01T05:32:06;2.22;;;0.90;;
64966;SDS011;51710;38.732;-121.358;2022-08-01T05:34:33;0.98;;;0.88;;
64966;SDS011;51710;38.732;-121.358;2022-08-01T05:36:59;0.88;;;0.80;;
64966;SDS011;51710;38.732;-121.358;2022-08-01T05:39:26;1.25;;;1.05;;
64966;SDS011;51710;38.732;-121.358;2022-08-01T05:41:53;1.80;;;0.77;;
64966;SDS011;51710;38.732;-121.358;2022-08-01T05:44:19;1.05;;;0.90;;
64966;SDS011;51710;38.732;-121.358;2022-08-01T05:46:45;0.80;;;0.80;;
64966;SDS011;51710;38.732;-121.358;2022-08-01T05:49:11;1.38;;;0.80;;
64966;SDS011;51710;38.732;-121.358;2022-08-01T05:51:38;0.82;;;0.80;;
64966;SDS011;51710;38.732;-121.358;2022-08-01T05:54:04;0.60;;;0.60;;
64966;SDS011;51710;38.732;-121.358;2022-08-01T05:56:30;1.00;;;0.82;;
64966;SDS011;51710;38.732;-121.358;2022-08-01T05:58:57;1.52;;;1.00;;
64966;SDS011;51710;38.732;-121.358;2022-08-01T06:01:23;1.42;;;1.00;;
64966;SDS011;51710;38.732;-121.358;2022-08-01T06:03:49;1.98;;;1.42;;
64966;SDS011;51710;38.732;-121.358;2022-08-01T06:06:16;1.10;;;0.80;;
64966;SDS011;51710;38.732;-121.358;2022-08-01T06:08:42;1.63;;;0.70;;
64966;SDS011;51710;38.732;-121.358;2022-08-01T06:11:09;1.60;;;1.00;;
64966;SDS011;51710;38.732;-121.358;2022-08-01T06:13:35;0.82;;;0.75;;
64966;SDS011;51710;38.732;-121.358;2022-08-01T06:16:02;0.85;;;0.70;;
64966;SDS011;51710;38.732;-121.358;2022-08-01T06:18:28;3.05;;;1.10;;
64966;SDS011;51710;38.732;-121.358;2022-08-01T06:20:54;1.60;;;0.65;;
64966;SDS011;51710;38.732;-121.358;2022-08-01T06:23:21;1.58;;;0.70;;
64966;SDS011;51710;38.732;-121.358;2022-08-01T06:25:47;1.35;;;0.73;;
64966;SDS011;51710;38.732;-121.358;2022-08-01T06:28:17;5.25;;;1.00;;
64966;SDS011;51710;38.732;-121.358;2022-08-01T06:30:43;2.35;;;0.80;;
64966;SDS011;51710;38.732;-121.358;2022-08-01T06:33:10;1.27;;;0.80;;
64966;SDS011;51710;38.732;-121.358;2022-08-01T06:35:36;1.20;;;1.00;;
64966;SDS011;51710;38.732;-121.358;2022-08-01T06:38:03;2.25;;;0.98;;
64966;SDS011;51710;38.732;-121.358;2022-08-01T06:40:29;1.75;;;1.00;;
64966;SDS011;51710;38.732;-121.358;2022-08-01T06:42:55;0.98;;;0.80;;
64966;SDS011;51710;38.732;-121.358;2022-08-01T06:45:22;1.48;;;1.00;;
64966;SDS011;51710;38.732;-121.358;2022-08-01T06:47:50;0.80;;;0.70;;
64966;SDS011;51710;38.732;-121.358;2022-08-01T06:50:16;1.48;;;0.80;;
64966;SDS011;51710;38.732;-121.358;2022-08-01T06:52:42;1.30;;;0.90;;
64966;SDS011;51710;38.732;-121.358;2022-08-01T06:55:09;1.02;;;0.80;;
64966;SDS011;51710;38.732;-121.358;2022-08-01T06:57:36;1.38;;;1.00;;
64966;SDS011;51710;38.732;-121.358;2022-08-01T07:00:10;1.23;;;0.80;;
64966;SDS011;51710;38.732;-121.358;2022-08-01T07:02:38;0.60;;;0.60;;
64966;SDS011;51710;38.732;-121.358;2022-08-01T07:05:05;2.08;;;0.73;;
64966;SDS011;51710;38.732;-121.358;2022-08-01T07:07:31;2.13;;;1.00;;
64966;SDS011;51710;38.732;-121.358;2022-08-01T07:09:57;1.35;;;0.88;;
64966;SDS011;51710;38.732;-121.358;2022-08-01T07:12:24;1.23;;;0.90;;
64966;SDS011;51710;38.732;-121.358;2022-08-01T07:14:50;1.23;;;0.93;;
64966;SDS011;51710;38.732;-121.358;2022-08-01T07:17:16;1.75;;;1.00;;
64966;SDS011;51710;38.732;-121.358;2022-08-01T07:19:45;1.23;;;0.80;;
64966;SDS011;51710;38.732;-121.358;2022-08-01T07:22:12;2.50;;;0.90;;
64966;SDS011;51710;38.732;-121.358;2022-08-01T07:24:39;1.10;;;0.90;;
64966;SDS011;51710;38.732;-121.358;2022-08-01T07:27:07;1.10;;;0.80;;
64966;SDS011;51710;38.732;-121.358;2022-08-01T07:29:33;1.27;;;1.00;;
64966;SDS011;51710;38.732;-121.358;2022-08-01T07:31:59;1.70;;;1.10;;
64966;SDS011;51710;38.732;-121.358;2022-08-01T07:34:26;0.90;;;0.90;;
64966;SDS011;51710;38.732;-121.358;2022-08-01T07:36:52;0.80;;;0.75;;
64966;SDS011;51710;38.732;-121.358;2022-08-01T07:39:19;1.33;;;0.98;;
64966;SDS011;51710;38.732;-121.358;2022-08-01T07:41:45;1.40;;;1.05;;
64966;SDS011;51710;38.732;-121.358;2022-08-01T07:44:12;1.50;;;1.02;;
64966;SDS011;51710;38.732;-121.358;2022-08-01T07:46:39;2.25;;;0.82;;
64966;SDS011;51710;38.732;-121.358;2022-08-01T07:49:05;1.23;;;1.00;;
64966;SDS011;51710;38.732;-121.358;2022-08-01T07:51:32;1.20;;;0.70;;
64966;SDS011;51710;38.732;-121.358;2022-08-01T07:53:58;1.10;;;0.88;;
64966;SDS011;51710;38.732;-121.358;2022-08-01T07:56:24;1.02;;;0.85;;
64966;SDS011;51710;38.732;-121.358;2022-08-01T07:58:51;1.08;;;0.80;;
64966;SDS011;51710;38.732;-121.358;2022-08-01T08:01:17;1.58;;;1.25;;
64966;SDS011;51710;38.732;-121.358;2022-08-01T08:03:45;1.52;;;1.00;;
64966;SDS011;51710;38.732;-121.358;2022-08-01T08:06:11;1.65;;;1.00;;
64966;SDS011;51710;38.732;-121.358;2022-08-01T08:08:37;1.20;;;1.00;;
64966;SDS011;51710;38.732;-121.358;2022-08-01T08:11:04;1.33;;;0.80;;
64966;SDS011;51710;38.732;-121.358;2022-08-01T08:13:31;1.13;;;0.85;;
64966;SDS011;51710;38.732;-121.358;2022-08-01T08:15:57;1.10;;;1.00;;
64966;SDS011;51710;38.732;-121.358;2022-08-01T08:18:25;1.17;;;0.80;;
64966;SDS011;51710;38.732;-121.358;2022-08-01T08:20:51;1.35;;;0.90;;
64966;SDS011;51710;38.732;-121.358;2022-08-01T08:23:18;1.23;;;0.80;;
64966;SDS011;51710;38.732;-121.358;2022-08-01T08:26:02;1.25;;;0.90;;
64966;SDS011;51710;38.732;-121.358;2022-08-01T08:28:28;1.13;;;0.80;;
64966;SDS011;51710;38.732;-121.358;2022-08-01T08:30:55;1.85;;;0.90;;
64966;SDS011;51710;38.732;-121.358;2022-08-01T08:33:21;3.03;;;1.73;;
64966;SDS011;51710;38.732;-121.358;2022-08-01T08:35:47;1.60;;;0.93;;
64966;SDS011;51710;38.732;-121.358;2022-08-01T08:38:13;1.15;;;0.80;;
64966;SDS011;51710;38.732;-121.358;2022-08-01T08:40:40;2.75;;;1.00;;
64966;SDS011;51710;38.732;-121.358;2022-08-01T08:43:06;2.03;;;0.95;;
64966;SDS011;51710;38.732;-121.358;2022-08-01T08:45:33;1.08;;;0.70;;
64966;SDS011;51710;38.732;-121.358;2022-08-01T08:47:59;1.35;;;0.90;;
64966;SDS011;51710;38.732;-121.358;2022-08-01T08:50:27;0.82;;;0.73;;
64966;SDS011;51710;38.732;-121.358;2022-08-01T08:52:54;1.00;;;0.90;;
64966;SDS011;51710;38.732;-121.358;2022-08-01T08:55:21;1.20;;;1.10;;
64966;SDS011;51710;38.732;-121.358;2022-08-01T08:57:49;1.00;;;0.85;;
64966;SDS011;51710;38.732;-121.358;2022-08-01T09:00:16;1.40;;;0.90;;
64966;SDS011;51710;38.732;-121.358;2022-08-01T09:02:43;1.52;;;0.88;;
64966;SDS011;51710;38.732;-121.358;2022-08-01T09:05:12;1.40;;;0.85;;
64966;SDS011;51710;38.732;-121.358;2022-08-01T09:07:38;1.98;;;0.90;;
64966;SDS011;51710;38.732;-121.358;2022-08-01T09:10:05;1.48;;;0.98;;
64966;SDS011;51710;38.732;-121.358;2022-08-01T09:12:33;1.25;;;0.80;;
64966;SDS011;51710;38.732;-121.358;2022-08-01T09:14:59;1.40;;;0.98;;
64966;SDS011;51710;38.732;-121.358;2022-08-01T09:17:25;1.17;;;0.80;;
64966;SDS011;51710;38.732;-121.358;2022-08-01T09:19:52;1.00;;;0.80;;
64966;SDS011;51710;38.732;-121.358;2022-08-01T09:22:21;1.00;;;0.80;;
64966;SDS011;51710;38.732;-121.358;2022-08-01T09:27:27;1.35;;;1.08;;
64966;SDS011;51710;38.732;-121.358;2022-08-01T09:29:55;1.23;;;1.00;;
64966;SDS011;51710;38.732;-121.358;2022-08-01T09:32:52;1.85;;;1.00;;
64966;SDS011;51710;38.732;-121.358;2022-08-01T09:35:37;1.65;;;1.23;;
64966;SDS011;51710;38.732;-121.358;2022-08-01T09:38:22;1.75;;;1.17;;
64966;SDS011;51710;38.732;-121.358;2022-08-01T09:43:20;1.98;;;1.25;;
64966;SDS011;51710;38.732;-121.358;2022-08-01T09:45:47;2.40;;;1.30;;
64966;SDS011;51710;38.732;-121.358;2022-08-01T09:48:14;1.88;;;1.00;;
64966;SDS011;51710;38.732;-121.358;2022-08-01T09:50:44;1.70;;;1.05;;
64966;SDS011;51710;38.732;-121.358;2022-08-01T09:53:12;1.55;;;1.10;;
64966;SDS011;51710;38.732;-121.358;2022-08-01T09:55:40;1.98;;;1.10;;
64966;SDS011;51710;38.732;-121.358;2022-08-01T09:58:07;2.13;;;1.30;;
64966;SDS011;51710;38.732;-121.358;2022-08-01T10:00:35;1.75;;;1.17;;
64966;SDS011;51710;38.732;-121.358;2022-08-01T10:03:21;2.25;;;1.30;;
64966;SDS011;51710;38.732;-121.358;2022-08-01T10:05:49;3.17;;;1.35;;
64966;SDS011;51710;38.732;-121.358;2022-08-01T10:08:16;3.60;;;1.23;;
64966;SDS011;51710;38.732;-121.358;2022-08-01T10:11:04;1.13;;;0.90;;
64966;SDS011;51710;38.732;-121.358;2022-08-01T10:13:32;2.65;;;1.02;;
64966;SDS011;51710;38.732;-121.358;2022-08-01T10:16:00;1.88;;;1.20;;
64966;SDS011;51710;38.732;-121.358;2022-08-01T10:18:28;1.60;;;1.13;;
64966;SDS011;51710;38.732;-121.358;2022-08-01T10:20:57;1.10;;;0.90;;
64966;SDS011;51710;38.732;-121.358;2022-08-01T10:23:26;2.00;;;1.23;;
64966;SDS011;51710;38.732;-121.358;2022-08-01T10:25:55;1.30;;;1.10;;
64966;SDS011;51710;38.732;-121.358;2022-08-01T10:28:25;2.10;;;1.20;;
64966;SDS011;51710;38.732;-121.358;2022-08-01T10:30:55;1.40;;;0.95;;
64966;SDS011;51710;38.732;-121.358;2022-08-01T10:33:24;2.00;;;1.02;;
64966;SDS011;51710;38.732;-121.358;2022-08-01T10:35:51;2.75;;;1.10;;
64966;SDS011;51710;38.732;-121.358;2022-08-01T10:38:17;1.85;;;1.25;;
64966;SDS011;51710;38.732;-121.358;2022-08-01T10:40:44;1.73;;;1.10;;
64966;SDS011;51710;38.732;-121.358;2022-08-01T10:43:11;1.90;;;1.05;;
64966;SDS011;51710;38.732;-121.358;2022-08-01T10:45:42;2.10;;;1.50;;
64966;SDS011;51710;38.732;-121.358;2022-08-01T10:48:11;2.30;;;1.30;;
64966;SDS011;51710;38.732;-121.358;2022-08-01T10:51:00;1.85;;;1.00;;
64966;SDS011;51710;38.732;-121.358;2022-08-01T10:53:29;2.17;;;1.20;;
64966;SDS011;51710;38.732;-121.358;2022-08-01T10:58:26;2.30;;;1.35;;
64966;SDS011;51710;38.732;-121.358;2022-08-01T11:03:43;1.90;;;1.35;;
64966;SDS011;51710;38.732;-121.358;2022-08-01T11:06:23;1.30;;;1.15;;
64966;SDS011;51710;38.732;-121.358;2022-08-01T11:08:52;1.58;;;1.20;;
64966;SDS011;51710;38.732;-121.358;2022-08-01T11:11:20;1.95;;;1.25;;
64966;SDS011;51710;38.732;-121.358;2022-08-01T11:16:40;1.88;;;1.00;;
64966;SDS011;51710;38.732;-121.358;2022-08-01T11:19:07;1.73;;;1.20;;
64966;SDS011;51710;38.732;-121.358;2022-08-01T11:27:23;1.93;;;1.30;;
64966;SDS011;51710;38.732;-121.358;2022-08-01T11:30:21;2.35;;;1.25;;
64966;SDS011;51710;38.732;-121.358;2022-08-01T11:32:55;1.85;;;0.90;;
64966;SDS011;51710;38.732;-121.358;2022-08-01T11:35:23;2.15;;;1.38;;
64966;SDS011;51710;38.732;-121.358;2022-08-01T11:37:55;1.40;;;1.00;;
64966;SDS011;51710;38.732;-121.358;2022-08-01T11:40:27;2.67;;;1.30;;
64966;SDS011;51710;38.732;-121.358;2022-08-01T11:48:19;2.53;;;1.30;;
64966;SDS011;51710;38.732;-121.358;2022-08-01T11:50:46;1.60;;;1.02;;
64966;SDS011;51710;38.732;-121.358;2022-08-01T11:53:15;1.42;;;1.20;;
64966;SDS011;51710;38.732;-121.358;2022-08-01T11:55:47;2.20;;;1.08;;
64966;SDS011;51710;38.732;-121.358;2022-08-01T11:58:15;3.42;;;1.38;;
64966;SDS011;51710;38.732;-121.358;2022-08-01T12:00:56;1.75;;;1.20;;
64966;SDS011;51710;38.732;-121.358;2022-08-01T12:03:27;1.88;;;1.00;;
64966;SDS011;51710;38.732;-121.358;2022-08-01T12:05:57;3.08;;;1.23;;
64966;SDS011;51710;38.732;-121.358;2022-08-01T12:08:28;2.22;;;1.27;;
64966;SDS011;51710;38.732;-121.358;2022-08-01T12:10:58;2.27;;;1.43;;
64966;SDS011;51710;38.732;-121.358;2022-08-01T12:13:25;1.80;;;1.20;;
64966;SDS011;51710;38.732;-121.358;2022-08-01T12:15:52;1.90;;;1.20;;
64966;SDS011;51710;38.732;-121.358;2022-08-01T12:18:19;2.65;;;1.60;;
64966;SDS011;51710;38.732;-121.358;2022-08-01T12:20:46;1.75;;;1.10;;
64966;SDS011;51710;38.732;-121.358;2022-08-01T12:23:13;1.42;;;1.02;;
64966;SDS011;51710;38.732;-121.358;2022-08-01T12:25:41;2.17;;;1.50;;
64966;SDS011;51710;38.732;-121.358;2022-08-01T12:28:12;2.53;;;1.10;;
64966;SDS011;51710;38.732;-121.358;2022-08-01T12:30:39;1.35;;;1.00;;
64966;SDS011;51710;38.732;-121.358;2022-08-01T12:33:06;3.25;;;1.27;;
64966;SDS011;51710;38.732;-121.358;2022-08-01T12:35:35;1.83;;;1.20;;
64966;SDS011;51710;38.732;-121.358;2022-08-01T12:38:07;2.25;;;1.30;;
64966;SDS011;51710;38.732;-121.358;2022-08-01T12:40:44;2.92;;;1.15;;
64966;SDS011;51710;38.732;-121.358;2022-08-01T12:43:20;1.88;;;1.17;;
64966;SDS011;51710;38.732;-121.358;2022-08-01T12:45:51;1.88;;;1.13;;
64966;SDS011;51710;38.732;-121.358;2022-08-01T12:48:19;1.42;;;1.00;;
64966;SDS011;51710;38.732;-121.358;2022-08-01T12:50:49;1.10;;;1.00;;
64966;SDS011;51710;38.732;-121.358;2022-08-01T12:53:17;1.73;;;1.20;;
64966;SDS011;51710;38.732;-121.358;2022-08-01T12:58:15;1.85;;;1.13;;
64966;SDS011;51710;38.732;-121.358;2022-08-01T13:00:43;2.05;;;1.30;;
64966;SDS011;51710;38.732;-121.358;2022-08-01T13:03:17;1.23;;;1.10;;
64966;SDS011;51710;38.732;-121.358;2022-08-01T13:05:48;2.28;;;1.15;;
64966;SDS011;51710;38.732;-121.358;2022-08-01T13:08:19;3.03;;;1.05;;
64966;SDS011;51710;38.732;-121.358;2022-08-01T13:11:04;2.67;;;1.10;;
64966;SDS011;51710;38.732;-121.358;2022-08-01T13:13:41;1.85;;;1.20;;
64966;SDS011;51710;38.732;-121.358;2022-08-01T13:16:12;2.42;;;1.02;;
64966;SDS011;51710;38.732;-121.358;2022-08-01T13:18:39;1.40;;;1.00;;
64966;SDS011;51710;38.732;-121.358;2022-08-01T13:21:13;2.33;;;1.20;;
64966;SDS011;51710;38.732;-121.358;2022-08-01T13:26:43;1.73;;;1.02;;
64966;SDS011;51710;38.732;-121.358;2022-08-01T13:29:12;2.15;;;1.20;;
64966;SDS011;51710;38.732;-121.358;2022-08-01T13:31:41;1.92;;;1.20;;
64966;SDS011;51710;38.732;-121.358;2022-08-01T13:34:08;1.75;;;1.05;;
64966;SDS011;51710;38.732;-121.358;2022-08-01T13:36:35;1.85;;;1.10;;
64966;SDS011;51710;38.732;-121.358;2022-08-01T13:39:03;1.63;;;1.25;;
64966;SDS011;51710;38.732;-121.358;2022-08-01T13:41:48;1.35;;;1.05;;
64966;SDS011;51710;38.732;-121.358;2022-08-01T13:44:15;2.30;;;1.10;;
64966;SDS011;51710;38.732;-121.358;2022-08-01T13:46:42;3.28;;;1.02;;
64966;SDS011;51710;38.732;-121.358;2022-08-01T13:49:10;1.15;;;0.98;;
64966;SDS011;51710;38.732;-121.358;2022-08-01T13:51:37;1.42;;;1.05;;
64966;SDS011;51710;38.732;-121.358;2022-08-01T13:54:04;2.15;;;1.13;;
64966;SDS011;51710;38.732;-121.358;2022-08-01T13:56:31;1.42;;;1.08;;
64966;SDS011;51710;38.732;-121.358;2022-08-01T13:58:58;2.38;;;1.02;;
64966;SDS011;51710;38.732;-121.358;2022-08-01T14:01:24;0.93;;;0.85;;
64966;SDS011;51710;38.732;-121.358;2022-08-01T14:03:51;3.08;;;0.95;;
64966;SDS011;51710;38.732;-121.358;2022-08-01T14:06:18;1.70;;;1.17;;
64966;SDS011;51710;38.732;-121.358;2022-08-01T14:08:47;1.95;;;1.08;;
64966;SDS011;51710;38.732;-121.358;2022-08-01T14:11:14;1.65;;;1.10;;
64966;SDS011;51710;38.732;-121.358;2022-08-01T14:13:41;0.77;;;0.70;;
64966;SDS011;51710;38.732;-121.358;2022-08-01T14:16:08;1.35;;;1.00;;
64966;SDS011;51710;38.732;-121.358;2022-08-01T14:18:34;2.03;;;1.20;;
64966;SDS011;51710;38.732;-121.358;2022-08-01T14:21:01;2.13;;;1.02;;
64966;SDS011;51710;38.732;-121.358;2022-08-01T14:23:27;1.55;;;1.05;;
64966;SDS011;51710;38.732;-121.358;2022-08-01T14:25:53;2.28;;;1.20;;
64966;SDS011;51710;38.732;-121.358;2022-08-01T14:28:19;1.50;;;0.98;;
64966;SDS011;51710;38.732;-121.358;2022-08-01T14:30:46;2.03;;;1.20;;
64966;SDS011;51710;38.732;-121.358;2022-08-01T14:33:13;2.72;;;1.30;;
64966;SDS011;51710;38.732;-121.358;2022-08-01T14:35:39;1.73;;;1.13;;
64966;SDS011;51710;38.732;-121.358;2022-08-01T14:38:07;1.85;;;1.20;;
64966;SDS011;51710;38.732;-121.358;2022-08-01T14:40:34;1.65;;;1.20;;
64966;SDS011;51710;38.732;-121.358;2022-08-01T14:43:01;1.90;;;1.17;;
64966;SDS011;51710;38.732;-121.358;2022-08-01T14:45:27;1.83;;;1.20;;
64966;SDS011;51710;38.732;-121.358;2022-08-01T14:47:54;3.15;;;1.20;;
64966;SDS011;51710;38.732;-121.358;2022-08-01T14:50:20;1.98;;;1.17;;
64966;SDS011;51710;38.732;-121.358;2022-08-01T14:52:48;1.40;;;1.15;;
64966;SDS011;51710;38.732;-121.358;2022-08-01T14:55:15;2.17;;;1.17;;
64966;SDS011;51710;38.732;-121.358;2022-08-01T14:57:41;1.98;;;1.00;;